createdAt,value
2019-02-19T00:01:29.702Z,4.40
2019-02-19T00:08:20.476Z,4.30
2019-02-19T00:11:00.789Z,4.20
2019-02-19T00:14:09.420Z,4.10
2019-02-19T00:21:18.647Z,4.10
2019-02-19T00:23:50.398Z,4.10
2019-02-19T00:27:40.622Z,4.10
2019-02-19T00:31:37.611Z,4.00
2019-02-19T00:34:40.618Z,4.00
2019-02-19T00:37:38.789Z,3.80
2019-02-19T00:40:55.119Z,3.80
2019-02-19T00:44:25.694Z,4.00
2019-02-19T00:50:57.229Z,3.90
2019-02-19T00:57:50.998Z,3.80
2019-02-19T01:01:21.318Z,3.80
2019-02-19T01:07:29.094Z,3.70
2019-02-19T01:10:51.770Z,3.70
2019-02-19T01:17:24.348Z,3.60
2019-02-19T01:20:26.522Z,3.50
2019-02-19T01:26:07.151Z,3.50
2019-02-19T01:29:22.245Z,3.40
2019-02-19T01:32:17.582Z,3.40
2019-02-19T01:42:50.994Z,3.40
2019-02-19T01:45:34.901Z,3.30
2019-02-19T01:48:37.458Z,3.30
2019-02-19T01:51:31.958Z,3.30
2019-02-19T01:54:34.243Z,3.20
2019-02-19T01:58:01.206Z,3.20
2019-02-19T02:00:58.804Z,3.10
2019-02-19T02:04:03.631Z,2.90
2019-02-19T02:06:59.138Z,2.90
2019-02-19T02:09:37.256Z,2.70
2019-02-19T02:12:58.595Z,2.60
2019-02-19T02:15:20.430Z,2.80
2019-02-19T02:22:51.674Z,2.80
2019-02-19T02:28:56.499Z,2.70
2019-02-19T02:31:59.604Z,2.50
2019-02-19T02:35:01.913Z,2.60
2019-02-19T02:37:40.285Z,2.60
2019-02-19T02:41:18.407Z,2.70
2019-02-19T02:43:56.001Z,2.70
2019-02-19T02:47:26.098Z,2.80
2019-02-19T02:56:51.617Z,2.70
2019-02-19T02:59:51.634Z,2.50
2019-02-19T03:02:43.991Z,2.40
2019-02-19T03:05:52.229Z,2.30
2019-02-19T03:09:30.797Z,2.40
2019-02-19T03:15:29.222Z,2.50
2019-02-19T03:19:05.702Z,2.30
2019-02-19T03:25:28.147Z,2.30
2019-02-19T03:28:27.055Z,2.30
2019-02-19T03:31:07.927Z,2.40
2019-02-19T03:33:51.066Z,2.40
2019-02-19T03:36:49.399Z,2.40
2019-02-19T03:39:21.701Z,2.40
2019-02-19T03:42:20.125Z,2.40
2019-02-19T03:44:59.013Z,2.50
2019-02-19T03:48:00.046Z,2.50
2019-02-19T03:50:54.586Z,2.40
2019-02-19T03:53:30.356Z,2.50
2019-02-19T03:56:18.022Z,2.50
2019-02-19T03:58:56.521Z,2.50
2019-02-19T04:01:37.206Z,2.40
2019-02-19T04:04:17.457Z,2.40
2019-02-19T04:06:51.236Z,2.40
2019-02-19T04:09:35.902Z,2.40
2019-02-19T04:12:19.810Z,2.30
2019-02-19T04:15:29.385Z,2.30
2019-02-19T04:18:16.131Z,2.20
2019-02-19T04:20:52.989Z,2.20
2019-02-19T04:23:56.032Z,2.10
2019-02-19T04:29:43.256Z,2.20
2019-02-19T04:32:39.081Z,2.20
2019-02-19T04:35:35.416Z,2.10
2019-02-19T04:38:55.840Z,2.20
2019-02-19T04:45:35.273Z,2.10
2019-02-19T04:55:40.693Z,1.90
2019-02-19T04:58:24.010Z,1.80
2019-02-19T05:01:38.151Z,1.80
2019-02-19T05:04:25.247Z,1.70
2019-02-19T05:07:08.239Z,1.90
2019-02-19T05:10:32.215Z,1.90
2019-02-19T05:14:05.469Z,1.80
2019-02-19T05:17:03.409Z,1.80
2019-02-19T05:21:01.725Z,1.80
2019-02-19T05:43:50.027Z,1.80
2019-02-19T05:57:58.310Z,1.90
2019-02-19T06:50:25.373Z,1.80
2019-02-19T06:53:51.763Z,1.80
2019-02-19T06:56:51.979Z,2.00
2019-02-19T06:59:35.709Z,2.20
2019-02-19T07:02:46.469Z,2.20
2019-02-19T07:05:29.886Z,2.40
2019-02-19T07:08:07.268Z,2.40
2019-02-19T07:10:47.799Z,2.40
2019-02-19T07:13:56.087Z,2.40
2019-02-19T07:16:29.302Z,2.30
2019-02-19T07:22:15.195Z,2.50
2019-02-19T07:24:54.649Z,2.60
2019-02-19T07:27:42.466Z,2.80
2019-02-19T07:30:17.661Z,2.80
2019-02-19T07:32:53.565Z,2.90
2019-02-19T07:35:28.958Z,2.90
2019-02-19T07:38:16.292Z,3.00
2019-02-19T07:40:43.824Z,3.20
2019-02-19T07:43:11.408Z,3.20
2019-02-19T07:45:39.191Z,3.20
2019-02-19T07:48:06.746Z,3.20
2019-02-19T07:50:34.285Z,3.30
2019-02-19T07:53:01.961Z,3.30
2019-02-19T07:55:29.854Z,3.40
2019-02-19T07:57:57.388Z,3.60
2019-02-19T08:00:25.022Z,3.80
2019-02-19T08:02:52.678Z,4.00
2019-02-19T08:05:20.249Z,4.10
2019-02-19T08:07:47.819Z,4.10
2019-02-19T08:10:15.376Z,4.20
2019-02-19T08:12:43.103Z,4.20
2019-02-19T08:15:10.707Z,4.30
2019-02-19T08:17:38.656Z,4.50
2019-02-19T08:20:13.449Z,4.70
2019-02-19T08:22:35.747Z,4.70
2019-02-19T08:25:03.623Z,4.70
2019-02-19T08:27:31.110Z,4.70
2019-02-19T08:29:58.755Z,4.80
2019-02-19T08:32:26.433Z,4.90
2019-02-19T08:34:55.317Z,5.20
2019-02-19T08:37:23.125Z,5.30
2019-02-19T08:39:51.900Z,5.60
2019-02-19T08:42:19.701Z,5.90
2019-02-19T08:44:47.316Z,6.10
2019-02-19T08:47:14.816Z,6.30
2019-02-19T08:49:42.309Z,6.50
2019-02-19T08:52:10.174Z,6.50
2019-02-19T08:54:37.817Z,6.50
2019-02-19T08:57:05.545Z,6.50
2019-02-19T08:59:33.264Z,6.70
2019-02-19T09:02:03.024Z,6.80
2019-02-19T09:04:30.993Z,7.00
2019-02-19T09:06:58.833Z,7.00
2019-02-19T09:09:26.742Z,7.30
2019-02-19T09:11:54.496Z,7.50
2019-02-19T09:14:22.393Z,7.30
2019-02-19T09:16:50.034Z,7.20
2019-02-19T09:19:17.859Z,7.30
2019-02-19T09:21:45.497Z,7.30
2019-02-19T09:24:13.040Z,7.40
2019-02-19T09:26:40.792Z,7.70
2019-02-19T09:29:08.683Z,7.90
2019-02-19T09:31:36.156Z,8.20
2019-02-19T09:34:06.583Z,8.40
2019-02-19T09:36:34.069Z,8.40
2019-02-19T09:39:01.553Z,8.40
2019-02-19T09:41:29.028Z,8.60
2019-02-19T09:43:56.524Z,8.70
2019-02-19T09:46:23.975Z,8.80
2019-02-19T09:48:51.452Z,8.80
2019-02-19T09:51:19.183Z,8.80
2019-02-19T09:53:46.678Z,8.80
2019-02-19T09:56:14.200Z,8.90
2019-02-19T09:58:41.667Z,8.80
2019-02-19T10:01:09.298Z,8.90
2019-02-19T10:03:36.778Z,8.90
2019-02-19T10:06:04.565Z,9.00
2019-02-19T10:08:32.522Z,8.80
2019-02-19T10:11:00.104Z,8.80
2019-02-19T10:13:27.585Z,8.90
2019-02-19T10:15:55.093Z,9.10
2019-02-19T10:18:22.600Z,9.20
2019-02-19T10:20:51.753Z,9.20
2019-02-19T10:23:19.809Z,9.40
2019-02-19T10:25:47.292Z,9.50
2019-02-19T10:28:15.197Z,9.60
2019-02-19T10:30:42.899Z,9.70
2019-02-19T10:33:10.493Z,9.70
2019-02-19T10:35:38.120Z,9.70
2019-02-19T10:38:05.971Z,9.80
2019-02-19T10:40:33.447Z,10.00
2019-02-19T10:43:04.552Z,10.10
2019-02-19T10:45:35.197Z,10.10
2019-02-19T10:48:03.113Z,10.20
2019-02-19T10:50:30.846Z,10.20
2019-02-19T10:52:58.517Z,10.40
2019-02-19T10:55:26.177Z,10.70
2019-02-19T10:57:54.773Z,10.80
2019-02-19T11:00:23.428Z,11.00
2019-02-19T11:02:51.394Z,11.30
2019-02-19T11:05:19.057Z,11.50
2019-02-19T11:07:46.754Z,11.70
2019-02-19T11:10:14.413Z,11.90
2019-02-19T11:12:42.148Z,12.20
2019-02-19T11:15:09.952Z,12.40
2019-02-19T11:17:47.764Z,12.70
2019-02-19T11:20:15.640Z,12.90
2019-02-19T11:22:43.276Z,13.00
2019-02-19T11:25:11.063Z,13.10
2019-02-19T11:27:38.564Z,13.10
2019-02-19T11:30:07.597Z,13.20
2019-02-19T11:32:35.176Z,13.30
2019-02-19T11:35:02.909Z,13.40
2019-02-19T11:37:30.439Z,13.50
2019-02-19T11:39:58.381Z,13.60
2019-02-19T11:42:26.605Z,13.80
2019-02-19T11:44:54.246Z,13.90
2019-02-19T11:47:26.544Z,14.00
2019-02-19T11:49:54.671Z,14.00
2019-02-19T11:52:22.417Z,14.20
2019-02-19T11:54:49.938Z,14.30
2019-02-19T11:57:17.499Z,14.30
2019-02-19T11:59:45.039Z,14.40
2019-02-19T12:02:14.849Z,14.40
2019-02-19T12:04:42.432Z,14.30
2019-02-19T12:07:09.992Z,14.40
2019-02-19T12:09:37.636Z,14.40
2019-02-19T12:12:08.685Z,14.30
2019-02-19T12:14:48.277Z,14.10
2019-02-19T12:18:00.514Z,13.90
2019-02-19T12:20:28.055Z,13.90
2019-02-19T12:22:55.579Z,13.50
2019-02-19T12:25:23.157Z,13.20
2019-02-19T12:27:50.690Z,13.10
2019-02-19T12:34:56.806Z,13.10
2019-02-19T12:37:40.524Z,12.90
2019-02-19T12:40:08.788Z,12.50
2019-02-19T12:42:54.444Z,12.40
2019-02-19T12:45:30.897Z,12.30
2019-02-19T12:49:14.290Z,12.20
2019-02-19T12:51:43.494Z,12.20
2019-02-19T12:54:12.049Z,12.10
2019-02-19T12:56:39.989Z,12.00
2019-02-19T12:59:07.598Z,12.10
2019-02-19T13:01:35.175Z,12.00
2019-02-19T13:04:02.714Z,12.10
2019-02-19T13:06:30.869Z,12.00
2019-02-19T13:08:58.658Z,12.10
2019-02-19T13:11:26.220Z,12.00
2019-02-19T13:13:54.173Z,12.10
2019-02-19T13:16:21.725Z,12.20
2019-02-19T13:18:49.420Z,12.10
2019-02-19T13:21:19.282Z,12.10
2019-02-19T13:23:46.777Z,12.10
2019-02-19T13:26:14.269Z,12.00
2019-02-19T13:28:42.741Z,12.00
2019-02-19T13:31:10.282Z,12.10
2019-02-19T13:33:38.412Z,12.10
2019-02-19T13:36:07.460Z,11.80
2019-02-19T13:38:35.025Z,11.80
2019-02-19T13:41:02.793Z,11.70
2019-02-19T13:43:30.401Z,11.50
2019-02-19T13:45:58.205Z,11.40
2019-02-19T13:48:25.786Z,11.30
2019-02-19T13:50:53.773Z,11.20
2019-02-19T13:53:26.163Z,11.20
2019-02-19T13:55:55.603Z,11.10
2019-02-19T13:58:23.161Z,11.10
2019-02-19T14:00:50.844Z,10.80
2019-02-19T14:03:18.346Z,10.90
2019-02-19T14:05:45.926Z,10.80
2019-02-19T14:08:14.820Z,10.90
2019-02-19T14:10:42.498Z,10.90
2019-02-19T14:13:10.024Z,10.80
2019-02-19T14:15:56.980Z,10.80
2019-02-19T14:18:44.598Z,10.80
2019-02-19T14:21:30.013Z,10.90
2019-02-19T14:24:18.431Z,11.00
2019-02-19T14:27:03.800Z,10.90
2019-02-19T14:29:49.448Z,10.70
2019-02-19T14:32:39.649Z,10.80
2019-02-19T14:35:24.913Z,10.90
2019-02-19T14:38:12.622Z,11.00
2019-02-19T14:41:05.227Z,11.00
2019-02-19T14:43:52.208Z,11.00
2019-02-19T14:46:51.073Z,11.00
2019-02-19T14:49:47.204Z,11.10
2019-02-19T14:52:33.037Z,11.20
2019-02-19T14:55:24.757Z,11.10
2019-02-19T14:58:04.576Z,11.00
2019-02-19T15:00:49.965Z,11.00
2019-02-19T15:03:40.134Z,10.90
2019-02-19T15:06:25.900Z,10.90
2019-02-19T15:09:11.003Z,10.90
2019-02-19T15:11:52.961Z,11.20
2019-02-19T15:14:31.114Z,11.20
2019-02-19T15:17:16.709Z,11.20
2019-02-19T15:20:06.745Z,11.20
2019-02-19T15:22:52.110Z,11.20
2019-02-19T15:25:42.170Z,11.20
2019-02-19T15:28:29.648Z,11.10
2019-02-19T15:31:22.685Z,11.10
2019-02-19T15:34:23.225Z,11.10
2019-02-19T15:37:25.368Z,11.10
2019-02-19T15:40:15.256Z,11.20
2019-02-19T15:43:00.907Z,11.20
2019-02-19T15:45:47.879Z,11.10
2019-02-19T15:48:38.389Z,11.10
2019-02-19T15:51:43.616Z,11.10
2019-02-19T15:54:42.779Z,11.20
2019-02-19T15:57:22.560Z,11.10
2019-02-19T16:00:04.385Z,11.10
2019-02-19T16:02:49.297Z,11.00
2019-02-19T16:05:35.032Z,10.90
2019-02-19T16:08:37.249Z,11.00
2019-02-19T16:11:23.020Z,10.90
2019-02-19T16:14:16.484Z,10.90
2019-02-19T16:16:51.471Z,10.90
2019-02-19T16:19:56.806Z,10.90
2019-02-19T16:22:58.377Z,10.80
2019-02-19T16:26:13.798Z,10.80
2019-02-19T16:29:15.041Z,10.80
2019-02-19T16:32:25.685Z,10.80
2019-02-19T16:35:18.371Z,10.70
2019-02-19T16:38:24.373Z,10.60
2019-02-19T16:41:08.892Z,10.60
2019-02-19T16:47:43.808Z,10.70
2019-02-19T16:54:38.306Z,10.70
2019-02-19T18:38:12.960Z,10.90
2019-02-19T19:09:52.770Z,10.70
2019-02-19T19:54:10.665Z,10.60
2019-02-19T20:54:38.877Z,9.70
2019-02-19T21:56:51.740Z,8.80
2019-02-19T21:59:56.644Z,8.70
